Time;durP1;ratioP1;P1;durP2;ratioP2;P2;SDS_P1;SDS_P2;PMS_P1;PMS_P2;Temp;Humidity;BMP_temperature;BMP_pressure;BME280_temperature;BME280_humidity;BME280_pressure;Samples;Min_cycle;Max_cycle;Signal;HPM_P1;HPM_P2
2021/07/27 00:02:25;;;;;;;7.13;6.43;;;22.40;99.90;;;;;;6157078;23;20406;-52
2021/07/27 00:04:52;;;;;;;7.73;6.07;;;22.40;99.90;;;;;;6157062;23;20472;-47
2021/07/27 00:07:21;;;;;;;10.13;6.83;;;22.40;99.90;;;;;;6156624;23;20422;-47
2021/07/27 00:09:48;;;;;;;6.93;5.83;;;22.30;99.90;;;;;;6156642;23;20441;-48
2021/07/27 00:12:15;;;;;;;7.07;6.37;;;22.30;99.90;;;;;;6156857;23;20424;-47
2021/07/27 00:14:43;;;;;;;7.90;6.00;;;22.30;99.90;;;;;;6156912;23;20401;-46
2021/07/27 00:17:09;;;;;;;9.23;6.90;;;22.20;99.90;;;;;;6156542;23;20913;-45
2021/07/27 00:19:36;;;;;;;9.17;5.60;;;22.20;99.90;;;;;;6156811;23;20753;-48
2021/07/27 00:22:05;;;;;;;6.93;5.70;;;22.20;99.90;;;;;;6156842;23;20675;-45
2021/07/27 00:24:32;;;;;;;7.10;6.00;;;22.10;99.90;;;;;;6156775;23;20426;-46
2021/07/27 00:26:59;;;;;;;8.97;6.40;;;22.10;99.90;;;;;;6156764;23;20417;-47
2021/07/27 00:29:25;;;;;;;8.87;7.77;;;22.10;99.90;;;;;;6156741;23;20408;-50
2021/07/27 00:31:53;;;;;;;13.37;6.20;;;22.10;99.90;;;;;;6156692;23;20406;-47
2021/07/27 00:34:20;;;;;;;7.53;6.70;;;22.00;99.90;;;;;;6156697;23;20417;-49
2021/07/27 00:36:46;;;;;;;7.10;6.37;;;22.00;99.90;;;;;;6156626;23;20418;-46
2021/07/27 00:39:13;;;;;;;7.23;6.50;;;22.00;99.90;;;;;;6156590;23;20441;-51
2021/07/27 00:41:40;;;;;;;8.00;7.20;;;22.10;99.90;;;;;;6156156;23;20896;-48
2021/07/27 00:44:09;;;;;;;8.47;7.20;;;22.00;99.90;;;;;;6156639;23;20480;-47
2021/07/27 00:46:36;;;;;;;9.80;7.07;;;22.00;99.90;;;;;;6156282;23;20405;-45
2021/07/27 00:49:04;;;;;;;9.60;7.57;;;21.90;99.90;;;;;;6156511;23;20421;-45
2021/07/27 00:51:31;;;;;;;15.40;7.30;;;21.90;99.90;;;;;;6156792;23;20406;-51
2021/07/27 00:53:58;;;;;;;7.30;6.60;;;21.90;99.90;;;;;;6156387;23;20445;-46
2021/07/27 00:56:25;;;;;;;8.43;7.57;;;21.80;99.90;;;;;;6156423;23;20462;-48
2021/07/27 00:58:52;;;;;;;8.33;6.80;;;21.80;99.90;;;;;;6156636;23;20452;-45
2021/07/27 01:01:19;;;;;;;9.40;7.10;;;21.80;99.90;;;;;;6156672;23;20402;-50
2021/07/27 01:03:46;;;;;;;9.30;6.90;;;21.80;99.90;;;;;;6156176;23;20488;-48
2021/07/27 01:06:14;;;;;;;7.30;6.00;;;21.70;99.90;;;;;;6156581;23;20421;-46
2021/07/27 01:08:41;;;;;;;10.83;7.70;;;21.70;99.90;;;;;;6156584;23;20430;-48
2021/07/27 01:11:08;;;;;;;10.07;8.70;;;21.60;99.90;;;;;;6156268;23;20476;-48
2021/07/27 01:13:34;;;;;;;9.13;8.17;;;21.60;99.90;;;;;;6156460;23;20401;-49
2021/07/27 01:16:04;;;;;;;9.10;7.33;;;21.70;99.90;;;;;;6156145;23;20413;-46
2021/07/27 01:18:44;;;;;;;9.00;8.10;;;21.70;99.90;;;;;;6156137;23;20989;-50
2021/07/27 01:37:47;;;;;;;13.17;8.60;;;21.60;99.90;;;;;;6158065;23;20373;-46
2021/07/27 01:40:18;;;;;;;7.77;6.93;;;21.60;99.90;;;;;;6158349;23;20403;-47
2021/07/27 01:42:43;;;;;;;7.90;7.10;;;21.60;99.90;;;;;;6158303;23;20480;-50
2021/07/27 01:45:19;;;;;;;9.60;7.87;;;21.60;99.90;;;;;;6158238;23;20436;-51
2021/07/27 01:47:46;;;;;;;10.33;7.00;;;21.60;99.90;;;;;;6157852;23;20469;-49
2021/07/27 01:50:15;;;;;;;9.03;7.30;;;21.60;99.90;;;;;;6158133;23;20421;-46
2021/07/27 01:52:46;;;;;;;9.53;7.00;;;21.50;99.90;;;;;;6158174;23;20444;-51
2021/07/27 01:55:16;;;;;;;8.87;7.97;;;21.60;99.90;;;;;;6157423;23;20525;-52
2021/07/27 01:57:43;;;;;;;12.63;7.27;;;21.60;99.90;;;;;;6158173;23;20410;-49
2021/07/27 02:00:11;;;;;;;8.80;8.00;;;21.60;99.90;;;;;;6158088;23;20437;-53
2021/07/27 02:02:38;;;;;;;8.70;7.80;;;21.70;99.90;;;;;;6158166;23;20428;-52
2021/07/27 02:05:06;;;;;;;12.50;8.97;;;21.60;99.90;;;;;;6158062;23;20466;-47
2021/07/27 02:07:35;;;;;;;13.63;8.67;;;21.70;99.90;;;;;;6158038;23;20405;-50
2021/07/27 02:10:06;;;;;;;12.53;7.63;;;21.60;99.90;;;;;;6157657;23;20398;-52
2021/07/27 02:12:40;;;;;;;12.47;8.17;;;21.60;99.90;;;;;;6158096;23;20488;-47
2021/07/27 02:15:17;;;;;;;12.73;8.37;;;21.60;99.90;;;;;;6158074;23;20390;-47
2021/07/27 02:17:44;;;;;;;10.27;9.23;;;21.60;99.90;;;;;;6157827;23;20409;-53
2021/07/27 04:03:54;;;;;;;10.57;9.00;;;21.00;99.90;;;;;;6129409;23;20447;-44
2021/07/27 04:06:21;;;;;;;10.90;8.40;;;21.00;99.90;;;;;;6127451;23;20413;-44
2021/07/27 04:08:47;;;;;;;11.87;8.07;;;21.00;99.90;;;;;;6137384;23;20462;-48
2021/07/27 04:11:14;;;;;;;8.90;8.00;;;21.00;99.90;;;;;;6127817;23;20413;-50
2021/07/27 04:13:41;;;;;;;8.40;7.60;;;21.00;99.90;;;;;;6127931;23;20403;-42
2021/07/27 04:16:08;;;;;;;10.73;8.60;;;21.10;99.90;;;;;;6127444;23;20906;-44
2021/07/27 04:18:34;;;;;;;15.63;9.80;;;21.10;99.90;;;;;;6127336;23;20446;-46
2021/07/27 04:21:02;;;;;;;8.73;7.83;;;21.10;99.90;;;;;;6127849;23;20410;-45
2021/07/27 04:23:30;;;;;;;9.50;8.50;;;21.00;99.90;;;;;;6127680;23;20481;-46
2021/07/27 04:25:57;;;;;;;9.90;7.50;;;21.00;99.90;;;;;;6127403;23;20493;-45
2021/07/27 04:28:24;;;;;;;9.43;8.33;;;21.00;99.90;;;;;;6128046;23;20407;-43
2021/07/27 04:30:51;;;;;;;18.80;8.60;;;21.00;99.90;;;;;;6127956;23;20414;-48
2021/07/27 04:33:17;;;;;;;12.30;7.90;;;21.00;99.90;;;;;;6127591;23;20406;-45
2021/07/27 04:35:44;;;;;;;9.60;8.60;;;21.00;99.90;;;;;;6127723;23;20426;-44
2021/07/27 04:38:12;;;;;;;10.40;8.47;;;21.00;99.90;;;;;;6127571;23;20473;-43
2021/07/27 04:40:39;;;;;;;10.90;8.10;;;21.00;99.90;;;;;;6127965;23;20739;-45
2021/07/27 04:43:05;;;;;;;8.53;7.23;;;21.10;99.90;;;;;;6127138;23;20415;-43
2021/07/27 04:45:32;;;;;;;8.30;7.50;;;21.10;99.90;;;;;;6127938;23;20421;-42
2021/07/27 04:47:59;;;;;;;10.97;7.80;;;21.10;99.90;;;;;;6127707;23;20410;-41
2021/07/27 04:50:25;;;;;;;10.17;8.47;;;21.10;99.90;;;;;;6129649;23;20440;-43
2021/07/27 04:52:57;;;;;;;8.23;7.10;;;21.10;99.90;;;;;;6127350;23;20383;-41
2021/07/27 04:55:26;;;;;;;9.53;8.33;;;21.20;99.90;;;;;;6131657;23;20411;-47
2021/07/27 04:57:53;;;;;;;8.70;7.80;;;21.20;99.90;;;;;;6127092;23;20437;-47
2021/07/27 05:00:22;;;;;;;11.70;7.60;;;21.30;99.90;;;;;;6127384;23;20434;-41
2021/07/27 05:02:49;;;;;;;11.53;6.77;;;21.30;99.90;;;;;;6129365;23;20450;-43
2021/07/27 05:05:16;;;;;;;8.80;6.87;;;21.40;99.90;;;;;;6131022;23;20422;-44
2021/07/27 05:07:44;;;;;;;8.00;7.17;;;21.50;99.90;;;;;;6129522;23;20406;-48
2021/07/27 05:10:11;;;;;;;9.80;8.40;;;21.50;99.90;;;;;;6134163;23;20407;-47
2021/07/27 05:12:39;;;;;;;7.47;6.30;;;21.50;99.90;;;;;;6138408;23;20399;-45
2021/07/27 05:15:06;;;;;;;9.40;7.07;;;21.60;99.90;;;;;;6132471;23;20419;-42
2021/07/27 05:17:33;;;;;;;10.47;6.83;;;21.70;99.90;;;;;;6133879;23;20434;-45
2021/07/27 05:20:00;;;;;;;7.53;6.83;;;21.70;99.90;;;;;;6132510;23;21093;-43
2021/07/27 05:22:27;;;;;;;9.07;7.20;;;21.70;99.90;;;;;;6129443;23;20407;-43
2021/07/27 05:24:55;;;;;;;6.80;6.03;;;21.80;99.90;;;;;;6127855;23;20432;-42
2021/07/27 05:27:22;;;;;;;8.10;7.30;;;21.80;99.90;;;;;;6129229;23;20490;-43
2021/07/27 05:29:51;;;;;;;8.83;7.07;;;21.80;99.90;;;;;;6128129;23;20406;-41
2021/07/27 05:32:18;;;;;;;7.97;7.20;;;21.90;99.90;;;;;;6134951;23;20410;-44
2021/07/27 05:34:45;;;;;;;8.33;7.00;;;21.90;99.90;;;;;;6139118;23;20465;-47
2021/07/27 05:37:12;;;;;;;9.20;6.93;;;22.00;99.90;;;;;;6129157;23;20399;-42
2021/07/27 05:39:39;;;;;;;8.30;7.50;;;22.00;99.90;;;;;;6131477;23;20438;-41
2021/07/27 05:42:06;;;;;;;8.73;7.70;;;22.00;99.90;;;;;;6130349;23;20418;-41
2021/07/27 05:44:33;;;;;;;7.17;6.10;;;22.10;99.90;;;;;;6132166;23;20481;-43
2021/07/27 05:47:01;;;;;;;10.23;6.83;;;22.20;99.90;;;;;;6130096;23;20497;-43
2021/07/27 05:49:28;;;;;;;8.53;6.30;;;22.20;99.90;;;;;;6131232;23;20413;-41
2021/07/27 05:51:56;;;;;;;7.63;6.77;;;22.30;99.90;;;;;;6129828;23;20407;-43
2021/07/27 05:54:23;;;;;;;7.73;5.97;;;22.40;99.90;;;;;;6129124;23;20692;-45
2021/07/27 05:56:51;;;;;;;7.60;6.43;;;22.50;99.90;;;;;;6129095;23;20433;-46
2021/07/27 05:59:19;;;;;;;9.47;7.50;;;22.50;99.90;;;;;;6129208;23;20433;-43
2021/07/27 06:01:46;;;;;;;8.57;7.70;;;22.60;99.90;;;;;;6130564;23;20410;-43
2021/07/27 06:04:14;;;;;;;11.60;7.20;;;22.70;99.90;;;;;;6130917;23;20759;-44
2021/07/27 06:06:41;;;;;;;8.30;6.70;;;22.70;99.90;;;;;;6131808;23;20430;-46
2021/07/27 06:09:10;;;;;;;6.53;5.93;;;22.70;99.90;;;;;;6131341;23;20402;-40
2021/07/27 06:11:37;;;;;;;10.60;6.07;;;22.80;99.90;;;;;;6130490;23;20501;-43
2021/07/27 06:14:04;;;;;;;7.40;5.20;;;22.90;99.90;;;;;;6128685;23;20469;-43
2021/07/27 06:16:31;;;;;;;8.23;6.10;;;22.90;99.90;;;;;;6129255;23;20449;-45
2021/07/27 06:18:58;;;;;;;9.17;6.50;;;23.00;99.90;;;;;;6129235;23;20438;-44
2021/07/27 06:21:27;;;;;;;8.40;6.87;;;23.00;99.90;;;;;;6128680;23;20407;-48
2021/07/27 06:23:54;;;;;;;9.90;6.87;;;23.10;99.90;;;;;;6129230;23;20469;-40
2021/07/27 06:26:21;;;;;;;10.70;8.00;;;23.10;99.90;;;;;;6130270;23;20406;-41
2021/07/27 06:28:48;;;;;;;18.27;8.10;;;23.10;99.90;;;;;;6128689;23;20411;-44
2021/07/27 06:31:14;;;;;;;7.67;6.20;;;23.30;99.90;;;;;;6128810;23;20473;-44
2021/07/27 06:33:42;;;;;;;8.27;5.23;;;23.30;99.90;;;;;;6128438;23;20419;-45
2021/07/27 06:36:09;;;;;;;8.57;5.00;;;23.30;99.90;;;;;;6128354;23;20414;-42
2021/07/27 06:38:38;;;;;;;5.33;4.83;;;23.40;99.90;;;;;;6129036;23;20534;-45
2021/07/27 06:41:06;;;;;;;8.13;7.33;;;23.50;99.90;;;;;;6128833;23;20513;-43
2021/07/27 06:43:33;;;;;;;7.80;5.97;;;23.50;99.90;;;;;;6129110;23;20777;-43
2021/07/27 06:46:00;;;;;;;6.90;6.20;;;23.60;99.90;;;;;;6129005;23;20414;-41
2021/07/27 06:48:27;;;;;;;6.77;5.90;;;23.70;99.90;;;;;;6128659;23;20415;-42
2021/07/27 06:50:54;;;;;;;5.73;4.70;;;23.70;99.90;;;;;;6128556;23;20399;-42
2021/07/27 06:53:21;;;;;;;4.63;4.20;;;23.80;99.90;;;;;;6128870;23;20411;-43
2021/07/27 06:55:49;;;;;;;7.30;4.97;;;23.90;99.90;;;;;;6128865;23;20402;-47
2021/07/27 06:58:15;;;;;;;8.17;4.73;;;23.90;99.90;;;;;;6128592;23;20792;-41
2021/07/27 07:00:42;;;;;;;5.90;5.00;;;24.00;99.90;;;;;;6128456;23;20501;-42
2021/07/27 07:03:09;;;;;;;7.23;4.57;;;24.10;99.90;;;;;;6128101;23;20453;-40
2021/07/27 07:05:37;;;;;;;5.70;4.90;;;24.10;99.90;;;;;;6128343;23;20493;-40
2021/07/27 07:08:07;;;;;;;4.87;3.93;;;24.20;99.90;;;;;;6128760;23;20783;-41
2021/07/27 07:10:33;;;;;;;4.63;4.13;;;24.30;99.90;;;;;;6129549;23;20390;-41
2021/07/27 07:13:01;;;;;;;6.90;4.60;;;24.40;99.90;;;;;;6127964;23;20874;-44
2021/07/27 07:15:28;;;;;;;4.20;3.80;;;24.50;99.90;;;;;;6128286;23;20767;-45
2021/07/27 07:17:55;;;;;;;3.93;3.50;;;24.60;99.90;;;;;;6128293;23;20406;-41
2021/07/27 07:20:21;;;;;;;6.27;3.90;;;24.70;99.90;;;;;;6128127;23;20434;-47
2021/07/27 07:22:48;;;;;;;5.37;4.10;;;24.80;99.90;;;;;;6129036;23;20426;-43
2021/07/27 07:25:15;;;;;;;4.70;4.30;;;25.40;99.90;;;;;;6128037;23;20942;-44
2021/07/27 07:27:43;;;;;;;4.37;3.97;;;26.60;99.90;;;;;;6128146;23;20839;-46
2021/07/27 07:30:12;;;;;;;5.33;4.83;;;28.10;99.90;;;;;;6127936;23;20814;-41
2021/07/27 07:32:41;;;;;;;8.57;4.43;;;29.30;99.90;;;;;;6127491;23;20427;-43
2021/07/27 07:35:08;;;;;;;3.93;3.53;;;30.80;99.90;;;;;;6126999;23;20407;-42
2021/07/27 07:37:35;;;;;;;6.63;3.83;;;32.10;94.70;;;;;;6127580;23;20411;-45
2021/07/27 07:40:01;;;;;;;3.87;3.57;;;33.30;90.20;;;;;;6127466;23;20439;-48
2021/07/27 07:42:28;;;;;;;4.03;3.57;;;33.60;80.00;;;;;;6128987;23;20422;-41
2021/07/27 07:44:55;;;;;;;3.87;3.57;;;33.70;76.70;;;;;;6129509;23;20410;-42
2021/07/27 07:47:23;;;;;;;4.10;3.80;;;33.60;74.70;;;;;;6128258;23;20469;-45
2021/07/27 07:49:50;;;;;;;6.70;3.70;;;33.80;74.10;;;;;;6128103;23;20423;-42
2021/07/27 07:52:18;;;;;;;4.97;3.90;;;34.40;71.00;;;;;;6127761;23;20417;-47
2021/07/27 07:54:44;;;;;;;7.33;5.20;;;35.20;67.50;;;;;;6128119;23;20419;-45
2021/07/27 07:57:11;;;;;;;4.63;4.03;;;35.90;62.70;;;;;;6127982;23;20465;-42
2021/07/27 07:59:38;;;;;;;4.70;3.63;;;36.40;59.30;;;;;;6127217;23;20787;-41
2021/07/27 08:02:04;;;;;;;4.67;3.87;;;36.90;58.20;;;;;;6128478;23;20468;-48
2021/07/27 08:04:32;;;;;;;5.67;3.50;;;37.40;56.30;;;;;;6130830;23;20434;-44
2021/07/27 08:06:59;;;;;;;5.67;3.43;;;37.70;54.10;;;;;;6130994;23;20399;-42
2021/07/27 08:09:26;;;;;;;5.37;3.53;;;37.90;53.70;;;;;;6130154;23;20407;-42
2021/07/27 08:11:52;;;;;;;3.87;3.53;;;38.20;52.80;;;;;;6129285;23;20436;-46
2021/07/27 08:14:20;;;;;;;5.03;4.10;;;38.10;52.40;;;;;;6131500;23;20415;-43
2021/07/27 08:16:49;;;;;;;4.10;3.77;;;38.10;51.80;;;;;;6132333;23;20403;-50
2021/07/27 08:19:16;;;;;;;3.87;3.37;;;38.00;52.50;;;;;;6129243;23;20506;-46
2021/07/27 08:21:44;;;;;;;4.13;3.83;;;37.60;51.30;;;;;;6128979;23;20406;-42
2021/07/27 08:24:12;;;;;;;3.67;3.27;;;37.50;51.40;;;;;;6128355;23;20402;-50
2021/07/27 08:26:38;;;;;;;4.10;3.77;;;37.20;52.50;;;;;;6129027;23;20387;-48
2021/07/27 08:29:05;;;;;;;4.67;4.20;;;37.20;52.30;;;;;;6129757;23;20467;-44
2021/07/27 08:31:32;;;;;;;3.93;3.53;;;37.00;52.60;;;;;;6129125;23;20873;-45
2021/07/27 08:33:59;;;;;;;4.20;3.83;;;37.10;53.20;;;;;;6128691;23;20877;-44
2021/07/27 08:36:25;;;;;;;6.37;3.77;;;37.00;52.80;;;;;;6128034;23;20418;-42
2021/07/27 08:38:53;;;;;;;4.10;3.63;;;36.70;52.70;;;;;;6129141;23;20481;-47
2021/07/27 08:41:24;;;;;;;5.60;5.10;;;37.20;53.40;;;;;;6128765;23;20916;-46
2021/07/27 08:43:50;;;;;;;4.33;3.87;;;37.70;52.00;;;;;;6129400;23;20413;-42
2021/07/27 08:46:17;;;;;;;4.53;4.00;;;38.30;51.00;;;;;;6130122;23;20415;-42
2021/07/27 08:48:44;;;;;;;3.53;3.23;;;38.80;49.80;;;;;;6129764;23;20403;-47
2021/07/27 08:51:12;;;;;;;4.10;3.70;;;39.20;49.10;;;;;;6129648;23;20787;-46
2021/07/27 08:53:39;;;;;;;4.47;4.07;;;39.50;48.50;;;;;;6129893;23;20411;-45
2021/07/27 08:56:07;;;;;;;3.77;3.40;;;39.60;47.10;;;;;;6128850;23;20402;-50
2021/07/27 08:58:34;;;;;;;4.57;3.63;;;39.70;46.50;;;;;;6131368;23;20406;-47
2021/07/27 09:01:00;;;;;;;6.97;3.23;;;39.80;46.00;;;;;;6132474;23;20442;-48
2021/07/27 09:03:28;;;;;;;6.10;4.00;;;39.80;45.10;;;;;;6129638;23;20446;-48
2021/07/27 09:06:04;;;;;;;3.77;3.47;;;39.80;44.40;;;;;;6128791;23;20495;-46
2021/07/27 09:08:31;;;;;;;3.50;2.80;;;39.80;44.50;;;;;;6128124;23;20438;-44
2021/07/27 09:11:00;;;;;;;4.57;3.63;;;39.30;45.00;;;;;;6129322;23;20442;-47
2021/07/27 09:13:35;;;;;;;7.73;3.27;;;39.50;44.80;;;;;;6129606;23;20441;-49
2021/07/27 09:16:02;;;;;;;4.40;4.00;;;39.60;44.60;;;;;;6129253;23;20378;-46
2021/07/27 09:18:30;;;;;;;3.73;3.40;;;39.60;44.30;;;;;;6129139;23;20424;-47
2021/07/27 09:20:58;;;;;;;4.53;4.13;;;39.50;44.60;;;;;;6128422;23;20605;-46
2021/07/27 09:23:26;;;;;;;9.93;8.47;;;39.00;45.40;;;;;;6128665;23;20437;-48
2021/07/27 09:25:54;;;;;;;6.60;5.50;;;38.90;45.50;;;;;;6128504;23;20418;-49
2021/07/27 09:28:22;;;;;;;3.77;3.47;;;38.80;45.30;;;;;;6128953;23;20402;-52
2021/07/27 09:30:56;;;;;;;3.63;3.30;;;39.00;44.90;;;;;;6129223;23;20465;-49
2021/07/27 09:33:28;;;;;;;4.47;4.07;;;39.00;45.60;;;;;;6127857;23;20387;-54
2021/07/27 09:35:55;;;;;;;4.37;3.97;;;38.70;45.80;;;;;;6129000;23;20720;-52
2021/07/27 09:38:22;;;;;;;5.27;4.43;;;38.70;46.10;;;;;;6128527;23;20410;-54
2021/07/27 09:40:51;;;;;;;4.00;3.70;;;38.70;46.10;;;;;;6129159;23;20438;-51
2021/07/27 09:43:19;;;;;;;5.60;4.60;;;38.70;45.70;;;;;;6130015;23;20419;-48
2021/07/27 09:45:48;;;;;;;4.73;4.27;;;38.60;46.40;;;;;;6130083;23;20411;-49
2021/07/27 09:48:17;;;;;;;9.80;7.47;;;38.10;47.20;;;;;;6129601;23;20473;-51
2021/07/27 09:50:46;;;;;;;6.03;5.43;;;37.80;46.50;;;;;;6130162;23;20411;-53
2021/07/27 09:53:12;;;;;;;10.13;8.87;;;37.40;47.20;;;;;;6130571;23;20490;-52
2021/07/27 09:55:39;;;;;;;4.30;3.90;;;37.30;47.50;;;;;;6130609;23;20406;-53
2021/07/27 09:58:06;;;;;;;4.70;4.23;;;36.80;48.00;;;;;;6131260;23;20430;-50
2021/07/27 10:00:36;;;;;;;5.97;4.77;;;36.30;48.70;;;;;;6131851;23;20453;-51
2021/07/27 10:03:05;;;;;;;5.07;3.53;;;36.70;48.30;;;;;;6131379;23;20470;-52
2021/07/27 10:05:34;;;;;;;5.37;4.87;;;37.00;47.50;;;;;;6132769;23;20406;-49
2021/07/27 10:08:01;;;;;;;5.30;3.97;;;37.30;47.50;;;;;;6132419;23;20421;-50
2021/07/27 10:10:39;;;;;;;4.40;4.00;;;37.40;46.10;;;;;;6131656;23;20410;-51
2021/07/27 10:13:11;;;;;;;5.50;3.90;;;36.30;47.70;;;;;;6131020;23;20391;-49
2021/07/27 10:15:46;;;;;;;4.70;4.27;;;35.70;49.50;;;;;;6130778;23;20387;-45
2021/07/27 10:18:14;;;;;;;5.47;4.47;;;35.80;49.40;;;;;;6130982;23;20449;-51
2021/07/27 10:20:42;;;;;;;5.73;3.77;;;35.90;48.70;;;;;;6131593;23;20461;-53
2021/07/27 10:23:20;;;;;;;5.20;4.50;;;35.90;48.70;;;;;;6131082;23;20731;-50
2021/07/27 10:25:58;;;;;;;4.17;3.77;;;35.10;49.30;;;;;;6130821;23;20413;-47
2021/07/27 10:28:25;;;;;;;4.40;4.00;;;34.60;50.60;;;;;;6130229;23;20449;-48
2021/07/27 10:31:03;;;;;;;4.60;4.20;;;34.50;49.90;;;;;;6131670;23;20484;-50
2021/07/27 10:33:31;;;;;;;4.13;3.73;;;34.60;50.40;;;;;;6131637;23;20784;-51
2021/07/27 10:35:59;;;;;;;6.13;5.50;;;34.70;50.70;;;;;;6131329;23;20654;-47
2021/07/27 10:38:39;;;;;;;3.67;3.37;;;34.90;51.20;;;;;;6129426;23;20692;-52
2021/07/27 10:41:16;;;;;;;6.40;5.80;;;35.20;49.10;;;;;;6128924;23;20442;-51
2021/07/27 10:43:43;;;;;;;4.10;3.70;;;35.20;49.40;;;;;;6128953;23;20474;-53
2021/07/27 10:46:11;;;;;;;4.43;4.03;;;35.00;50.00;;;;;;6128756;23;20490;-51
2021/07/27 10:48:39;;;;;;;3.80;3.50;;;34.70;49.90;;;;;;6128814;23;20418;-49
2021/07/27 10:51:09;;;;;;;4.07;3.77;;;34.40;50.60;;;;;;6128374;23;20403;-51
2021/07/27 10:53:36;;;;;;;9.63;8.43;;;33.70;50.80;;;;;;6128150;23;20410;-50
2021/07/27 10:56:05;;;;;;;4.67;4.27;;;33.60;52.20;;;;;;6128537;23;20465;-49
2021/07/27 10:58:32;;;;;;;4.20;3.80;;;33.60;52.10;;;;;;6128070;23;20423;-51
2021/07/27 11:01:09;;;;;;;7.10;6.40;;;33.30;52.10;;;;;;6128302;23;20434;-48
2021/07/27 11:03:37;;;;;;;6.20;5.60;;;32.70;52.70;;;;;;6128141;23;20512;-53
2021/07/27 11:06:04;;;;;;;3.53;3.20;;;32.60;53.40;;;;;;6128608;23;20423;-46
2021/07/27 11:08:33;;;;;;;4.60;3.80;;;32.80;52.50;;;;;;6127956;23;20411;-49
2021/07/27 11:11:07;;;;;;;3.83;3.13;;;32.90;52.60;;;;;;6129584;23;20497;-48
2021/07/27 11:13:34;;;;;;;3.87;3.20;;;32.90;52.80;;;;;;6131066;23;20406;-46
2021/07/27 11:16:01;;;;;;;3.63;3.33;;;32.70;53.00;;;;;;6130632;23;20407;-47
2021/07/27 11:18:29;;;;;;;4.43;3.90;;;32.10;53.00;;;;;;6130461;23;20874;-48
2021/07/27 11:20:56;;;;;;;4.10;3.70;;;31.70;54.30;;;;;;6128640;23;20442;-49
2021/07/27 11:23:24;;;;;;;4.63;3.30;;;31.30;55.00;;;;;;6129512;23;20422;-50
2021/07/27 11:25:53;;;;;;;3.63;3.33;;;31.00;55.70;;;;;;6128823;23;20406;-54
2021/07/27 11:28:20;;;;;;;3.50;3.20;;;30.70;56.60;;;;;;6130770;23;20502;-47
2021/07/27 11:30:47;;;;;;;4.30;3.87;;;30.50;57.70;;;;;;6129486;23;20410;-49
2021/07/27 11:33:15;;;;;;;5.87;5.27;;;30.50;57.70;;;;;;6130239;23;20485;-52
2021/07/27 11:35:43;;;;;;;4.70;3.63;;;30.50;57.30;;;;;;6128674;23;20414;-51
2021/07/27 11:38:10;;;;;;;4.00;3.70;;;30.60;57.30;;;;;;6128306;23;20481;-49
2021/07/27 11:40:37;;;;;;;3.73;3.30;;;30.80;56.70;;;;;;6127746;23;20419;-47
2021/07/27 11:43:07;;;;;;;4.30;3.60;;;30.80;56.70;;;;;;6128324;23;20509;-47
2021/07/27 11:45:34;;;;;;;4.50;3.90;;;30.70;56.70;;;;;;6127798;23;20407;-53
2021/07/27 11:48:01;;;;;;;3.97;2.80;;;30.80;57.20;;;;;;6128145;23;20415;-52
2021/07/27 11:50:29;;;;;;;5.23;3.83;;;30.80;57.00;;;;;;6128116;23;20429;-49
2021/07/27 11:52:59;;;;;;;4.93;4.03;;;30.60;57.20;;;;;;6128112;23;20407;-52
2021/07/27 11:55:30;;;;;;;5.40;4.17;;;30.30;57.80;;;;;;6127976;23;20672;-53
2021/07/27 11:57:57;;;;;;;5.27;3.40;;;30.20;58.00;;;;;;6128281;23;20414;-55
2021/07/27 12:00:26;;;;;;;4.20;3.67;;;30.10;58.70;;;;;;6128185;23;20493;-49
2021/07/27 12:02:53;;;;;;;4.00;3.60;;;30.40;57.90;;;;;;6127855;23;20444;-55
2021/07/27 12:05:20;;;;;;;3.77;3.47;;;30.50;56.60;;;;;;6127770;23;20428;-54
2021/07/27 12:07:47;;;;;;;4.80;3.77;;;30.50;56.50;;;;;;6127265;23;20945;-51
2021/07/27 12:10:15;;;;;;;3.90;3.50;;;30.50;56.70;;;;;;6127256;23;20720;-55
2021/07/27 12:12:42;;;;;;;4.00;3.50;;;30.60;56.90;;;;;;6127574;23;20457;-52
2021/07/27 12:15:12;;;;;;;3.80;3.50;;;30.60;56.20;;;;;;6127254;23;20411;-49
2021/07/27 12:17:40;;;;;;;4.67;3.20;;;30.60;56.20;;;;;;6127650;23;20502;-49
2021/07/27 12:20:08;;;;;;;5.40;3.50;;;30.70;56.90;;;;;;6127458;23;20760;-51
2021/07/27 12:22:35;;;;;;;8.80;8.00;;;30.80;57.30;;;;;;6127498;23;20438;-53
2021/07/27 12:25:02;;;;;;;10.00;8.93;;;30.50;57.60;;;;;;6127234;23;20406;-52
2021/07/27 12:27:28;;;;;;;6.53;5.90;;;30.20;58.70;;;;;;6127747;23;20956;-52
2021/07/27 12:29:55;;;;;;;5.30;3.80;;;30.00;58.90;;;;;;6127662;23;20410;-55
2021/07/27 12:32:22;;;;;;;7.70;4.63;;;29.90;59.00;;;;;;6127205;23;20873;-54
2021/07/27 12:34:50;;;;;;;4.33;3.33;;;29.70;58.80;;;;;;6126991;23;20425;-54
2021/07/27 12:37:18;;;;;;;11.83;9.17;;;29.40;59.20;;;;;;6127539;23;20425;-53
2021/07/27 12:39:45;;;;;;;6.73;4.90;;;29.30;60.50;;;;;;6127517;23;20489;-53
2021/07/27 12:42:12;;;;;;;9.37;6.47;;;29.10;60.00;;;;;;6127307;23;20453;-52
2021/07/27 12:44:38;;;;;;;3.77;3.37;;;29.00;61.10;;;;;;6127447;23;20407;-56
2021/07/27 12:47:05;;;;;;;5.20;4.70;;;29.00;62.10;;;;;;6127422;23;20411;-52
2021/07/27 12:49:32;;;;;;;5.37;4.60;;;29.00;61.70;;;;;;6127399;23;20759;-54
2021/07/27 12:52:00;;;;;;;4.77;4.37;;;29.00;61.80;;;;;;6127445;23;20469;-49
2021/07/27 12:54:26;;;;;;;5.47;4.47;;;29.00;61.50;;;;;;6126994;23;20446;-54
2021/07/27 12:56:53;;;;;;;4.10;3.70;;;29.00;60.90;;;;;;6127280;23;20426;-53
2021/07/27 12:59:20;;;;;;;4.27;3.57;;;29.10;60.80;;;;;;6127442;23;20414;-53
2021/07/27 13:01:46;;;;;;;5.87;3.87;;;29.00;60.60;;;;;;6126925;23;20501;-54
2021/07/27 13:04:13;;;;;;;6.47;3.50;;;29.00;61.50;;;;;;6127004;23;20435;-51
2021/07/27 13:06:40;;;;;;;3.33;3.03;;;29.30;61.50;;;;;;6127254;23;20878;-51
2021/07/27 13:09:08;;;;;;;7.47;6.77;;;29.50;60.90;;;;;;6127189;23;20407;-49
2021/07/27 13:11:36;;;;;;;23.77;21.20;;;29.70;59.90;;;;;;6127169;23;20417;-53
2021/07/27 13:14:02;;;;;;;4.90;4.40;;;29.60;60.10;;;;;;6127182;23;20775;-52
2021/07/27 13:16:29;;;;;;;4.00;3.60;;;29.60;59.00;;;;;;6126794;23;20407;-52
2021/07/27 13:18:56;;;;;;;4.23;3.60;;;29.50;59.30;;;;;;6126809;23;20410;-55
2021/07/27 13:21:24;;;;;;;10.23;4.37;;;29.40;59.00;;;;;;6127100;23;20454;-52
2021/07/27 13:23:50;;;;;;;5.00;3.67;;;29.50;59.40;;;;;;6127459;23;20450;-55
2021/07/27 13:26:18;;;;;;;5.93;3.27;;;29.40;58.50;;;;;;6127489;23;20410;-53
2021/07/27 13:28:45;;;;;;;4.70;3.10;;;29.40;59.80;;;;;;6126797;23;20406;-49
2021/07/27 13:31:12;;;;;;;11.37;2.70;;;29.40;58.00;;;;;;6127033;23;20454;-54
2021/07/27 13:33:39;;;;;;;3.47;2.83;;;29.30;58.00;;;;;;6128787;23;20426;-50
2021/07/27 13:36:06;;;;;;;4.90;2.80;;;29.30;57.90;;;;;;6128401;23;20421;-52
2021/07/27 13:38:34;;;;;;;4.63;2.83;;;29.20;58.30;;;;;;6128774;23;20681;-54
2021/07/27 13:41:01;;;;;;;6.00;3.20;;;29.20;58.60;;;;;;6129124;23;20699;-49
2021/07/27 13:43:29;;;;;;;3.13;2.80;;;29.20;58.00;;;;;;6129135;23;20718;-54
2021/07/27 13:45:57;;;;;;;9.47;4.63;;;29.20;57.30;;;;;;6128441;23;20398;-55
2021/07/27 13:48:24;;;;;;;3.13;2.77;;;29.20;58.30;;;;;;6128943;23;20415;-55
2021/07/27 13:50:50;;;;;;;5.40;4.57;;;29.20;59.00;;;;;;6128800;23;20440;-53
2021/07/27 13:53:19;;;;;;;3.53;3.23;;;29.10;59.10;;;;;;6128259;23;20458;-55
2021/07/27 13:55:46;;;;;;;24.03;4.33;;;29.00;59.10;;;;;;6128661;23;20489;-55
2021/07/27 13:58:13;;;;;;;3.63;3.23;;;29.10;58.90;;;;;;6128729;23;20430;-55
2021/07/27 14:00:41;;;;;;;4.30;3.40;;;29.10;59.50;;;;;;6128754;23;20402;-55
2021/07/27 14:03:08;;;;;;;3.17;2.87;;;29.20;59.40;;;;;;6128187;23;20509;-54
2021/07/27 14:05:36;;;;;;;3.90;3.43;;;29.30;59.40;;;;;;6128727;23;20477;-50
2021/07/27 14:08:03;;;;;;;6.47;5.03;;;29.30;59.40;;;;;;6128429;23;20411;-53
2021/07/27 14:10:30;;;;;;;3.20;2.70;;;29.40;58.90;;;;;;6128802;23;20457;-54
2021/07/27 14:12:57;;;;;;;6.70;2.50;;;29.30;58.70;;;;;;6128794;23;20857;-54
2021/07/27 14:15:23;;;;;;;4.20;3.83;;;29.30;59.60;;;;;;6128658;23;20757;-53
2021/07/27 14:17:51;;;;;;;3.50;3.20;;;29.30;59.10;;;;;;6128701;23;20414;-52
2021/07/27 14:20:18;;;;;;;3.50;3.07;;;29.40;59.40;;;;;;6128767;23;20418;-54
2021/07/27 14:22:44;;;;;;;3.03;2.70;;;29.50;58.50;;;;;;6128598;23;20473;-54
2021/07/27 14:25:16;;;;;;;4.90;2.57;;;29.50;59.50;;;;;;6128397;23;20407;-54
2021/07/27 14:27:43;;;;;;;2.87;2.67;;;29.50;58.20;;;;;;6128604;23;20435;-56
2021/07/27 14:30:10;;;;;;;4.80;2.47;;;29.40;58.10;;;;;;6127940;23;20403;-49
2021/07/27 14:32:37;;;;;;;3.20;2.90;;;29.30;58.00;;;;;;6128585;23;20728;-52
2021/07/27 14:35:06;;;;;;;7.70;2.10;;;29.00;58.40;;;;;;6128501;23;20391;-54
2021/07/27 14:37:32;;;;;;;2.83;2.43;;;28.90;59.10;;;;;;6128328;23;20473;-54
2021/07/27 14:39:59;;;;;;;4.60;2.77;;;28.80;60.00;;;;;;6128419;23;20607;-53
2021/07/27 14:42:26;;;;;;;2.53;2.33;;;28.70;59.80;;;;;;6128212;23;20449;-50
2021/07/27 14:44:53;;;;;;;2.70;2.50;;;28.70;60.00;;;;;;6127949;23;20478;-52
2021/07/27 14:47:19;;;;;;;2.77;2.20;;;28.70;59.70;;;;;;6128429;23;20418;-53
2021/07/27 14:49:46;;;;;;;2.93;2.63;;;28.60;61.60;;;;;;6128402;23;20708;-49